createdAt,value
2022-12-17T00:03:42.583Z,45.45
2022-12-17T00:09:02.952Z,45.72
2022-12-17T00:14:24.904Z,45.79
2022-12-17T00:19:45.275Z,45.67
2022-12-17T00:25:05.621Z,45.99
2022-12-17T00:30:28.892Z,45.92
2022-12-17T00:35:49.435Z,46.09
2022-12-17T00:41:10.176Z,46.38
2022-12-17T00:46:32.153Z,46.34
2022-12-17T00:51:52.732Z,46.49
2022-12-17T00:57:12.925Z,46.59
2022-12-17T01:02:35.011Z,46.65
2022-12-17T01:07:55.308Z,46.74
2022-12-17T01:13:16.503Z,46.85
2022-12-17T01:18:38.281Z,46.69
2022-12-17T01:23:58.580Z,46.82
2022-12-17T01:29:18.769Z,46.86
2022-12-17T01:34:40.274Z,47.04
2022-12-17T01:40:00.580Z,46.90
2022-12-17T01:45:20.992Z,47.11
2022-12-17T01:50:43.542Z,47.32
2022-12-17T01:56:03.751Z,47.44
2022-12-17T02:01:24.477Z,47.34
2022-12-17T02:06:46.505Z,47.23
2022-12-17T02:12:10.440Z,47.23
2022-12-17T02:17:32.761Z,46.94
2022-12-17T02:22:57.642Z,46.74
2022-12-17T02:28:19.586Z,46.38
2022-12-17T02:33:40.142Z,46.45
2022-12-17T02:39:01.443Z,45.99
2022-12-17T02:44:23.870Z,46.23
2022-12-17T02:49:40.976Z,45.99
2022-12-17T02:55:01.559Z,46.12
2022-12-17T03:00:24.526Z,46.10
2022-12-17T03:05:45.963Z,46.37
2022-12-17T03:11:06.432Z,46.35
2022-12-17T03:16:34.200Z,46.40
2022-12-17T03:21:57.767Z,46.55
2022-12-17T03:27:18.241Z,46.31
2022-12-17T03:32:39.715Z,46.50
2022-12-17T03:38:00.156Z,46.47
2022-12-17T03:43:24.708Z,46.47
2022-12-17T03:48:46.053Z,46.66
2022-12-17T03:54:06.312Z,46.65
2022-12-17T03:59:26.461Z,46.80
2022-12-17T04:04:47.969Z,46.78
2022-12-17T04:10:08.225Z,46.98
2022-12-17T04:15:29.076Z,47.05
2022-12-17T04:20:50.816Z,47.11
2022-12-17T04:26:11.326Z,47.42
2022-12-17T04:31:31.839Z,47.58
2022-12-17T04:36:53.546Z,47.71
2022-12-17T04:42:13.928Z,48.04
2022-12-17T04:47:34.286Z,48.43
2022-12-17T04:52:55.779Z,48.98
2022-12-17T04:58:20.611Z,49.35
2022-12-17T05:03:41.088Z,49.60
2022-12-17T05:09:08.442Z,49.96
2022-12-17T05:14:28.796Z,50.50
2022-12-17T05:19:48.997Z,50.68
2022-12-17T05:25:10.834Z,50.79
2022-12-17T05:30:31.248Z,50.96
2022-12-17T05:35:51.439Z,51.33
2022-12-17T05:41:14.357Z,51.24
2022-12-17T05:46:34.472Z,51.25
2022-12-17T05:51:54.777Z,51.42
2022-12-17T05:57:16.335Z,51.44
2022-12-17T06:02:37.068Z,51.57
2022-12-17T06:07:57.463Z,51.59
2022-12-17T06:13:18.759Z,51.72
2022-12-17T06:18:47.392Z,51.67
2022-12-17T06:24:22.325Z,51.95
2022-12-17T06:29:43.892Z,52.02
2022-12-17T06:35:04.276Z,51.86
2022-12-17T06:40:25.522Z,51.98
2022-12-17T06:45:47.199Z,52.27
2022-12-17T06:51:07.597Z,52.07
2022-12-17T06:56:27.863Z,52.23
2022-12-17T07:01:49.509Z,52.38
2022-12-17T07:07:10.125Z,52.71
2022-12-17T07:12:30.236Z,52.56
2022-12-17T07:17:52.203Z,52.66
2022-12-17T07:23:27.996Z,52.74
2022-12-17T07:28:48.475Z,52.81
2022-12-17T07:34:10.296Z,52.88
2022-12-17T07:39:30.907Z,53.01
2022-12-17T07:44:51.213Z,52.91
2022-12-17T07:50:13.391Z,53.10
2022-12-17T07:55:33.991Z,53.27
2022-12-17T08:00:54.228Z,53.18
2022-12-17T08:06:17.085Z,53.59
2022-12-17T08:11:37.231Z,38.81
2022-12-17T08:16:58.352Z,43.08
2022-12-17T08:22:20.684Z,42.74
2022-12-17T08:27:41.047Z,42.31
2022-12-17T08:33:03.501Z,41.38
2022-12-17T08:38:25.466Z,41.02
2022-12-17T08:43:45.620Z,40.13
2022-12-17T08:49:05.771Z,39.69
2022-12-17T08:54:27.481Z,39.95
2022-12-17T08:59:48.045Z,40.29
2022-12-17T09:05:08.189Z,40.75
2022-12-17T09:10:29.860Z,41.26
2022-12-17T09:15:50.548Z,41.83
2022-12-17T09:21:11.289Z,41.90
2022-12-17T09:26:38.060Z,42.14
2022-12-17T09:31:58.196Z,42.15
2022-12-17T09:37:18.589Z,41.92
2022-12-17T09:42:45.515Z,42.21
2022-12-17T09:48:10.810Z,42.20
2022-12-17T09:53:39.286Z,42.46
2022-12-17T09:59:00.858Z,42.39
2022-12-17T10:04:20.919Z,42.65
2022-12-17T10:09:41.545Z,42.91
2022-12-17T10:15:03.332Z,42.73
2022-12-17T10:20:32.614Z,43.09
2022-12-17T10:25:53.161Z,43.53
2022-12-17T10:31:14.703Z,43.62
2022-12-17T10:36:39.258Z,43.90
2022-12-17T10:42:11.411Z,44.18
2022-12-17T10:47:34.360Z,44.42
2022-12-17T10:52:54.737Z,44.61
2022-12-17T10:58:21.049Z,44.79
2022-12-17T11:03:51.225Z,44.81
2022-12-17T11:09:11.708Z,44.99
2022-12-17T11:14:32.176Z,45.12
2022-12-17T11:19:56.942Z,45.26
2022-12-17T11:25:22.635Z,45.18
2022-12-17T11:30:45.492Z,45.69
2022-12-17T11:36:10.604Z,45.87
2022-12-17T11:41:34.315Z,46.13
2022-12-17T11:46:57.867Z,46.87
2022-12-17T11:52:22.017Z,47.62
2022-12-17T11:57:43.775Z,47.51
2022-12-17T12:03:12.432Z,47.29
2022-12-17T12:08:37.495Z,47.43
2022-12-17T12:13:59.425Z,47.11
2022-12-17T12:19:24.724Z,47.58
2022-12-17T12:25:10.873Z,47.33
2022-12-17T12:30:32.684Z,46.89
2022-12-17T12:35:52.991Z,46.76
2022-12-17T12:41:17.482Z,46.75
2022-12-17T12:46:39.545Z,46.80
2022-12-17T12:52:00.153Z,46.94
2022-12-17T12:57:22.037Z,46.82
2022-12-17T13:02:44.717Z,46.67
2022-12-17T13:07:47.771Z,46.64
2022-12-17T13:12:51.979Z,46.09
2022-12-17T13:18:00.231Z,46.00
2022-12-17T13:23:15.591Z,45.59
2022-12-17T13:28:29.554Z,45.28
2022-12-17T13:33:35.877Z,45.04
2022-12-17T13:38:43.893Z,44.71
2022-12-17T13:43:49.414Z,44.64
2022-12-17T13:48:56.421Z,44.40
2022-12-17T13:53:59.781Z,44.30
2022-12-17T13:59:09.291Z,44.08
2022-12-17T14:04:23.346Z,44.00
2022-12-17T14:09:30.869Z,43.92
2022-12-17T14:14:43.648Z,43.79
2022-12-17T14:19:46.535Z,43.53
2022-12-17T14:24:49.447Z,43.67
2022-12-17T14:29:53.736Z,43.19
2022-12-17T14:35:00.996Z,43.23
2022-12-17T14:40:05.363Z,43.22
2022-12-17T14:45:22.765Z,43.08
2022-12-17T14:50:28.351Z,42.97
2022-12-17T14:55:35.813Z,42.77
2022-12-17T15:00:40.144Z,42.69
2022-12-17T15:05:43.000Z,42.70
2022-12-17T15:10:45.721Z,42.81
2022-12-17T15:15:49.797Z,42.48
2022-12-17T15:20:53.090Z,42.47
2022-12-17T15:25:56.110Z,42.40
2022-12-17T15:31:00.364Z,42.32
2022-12-17T15:36:03.154Z,42.26
2022-12-17T15:41:27.123Z,41.72
2022-12-17T15:46:31.465Z,41.80
2022-12-17T15:51:34.285Z,41.39
2022-12-17T15:56:37.459Z,40.75
2022-12-17T16:01:41.691Z,40.92
2022-12-17T16:06:44.540Z,40.51
2022-12-17T16:11:47.494Z,40.46
2022-12-17T16:16:51.879Z,40.15
2022-12-17T16:21:54.801Z,39.98
2022-12-17T16:27:04.046Z,39.64
2022-12-17T16:32:08.794Z,39.36
2022-12-17T16:37:11.652Z,39.42
2022-12-17T16:42:14.510Z,39.24
2022-12-17T16:47:18.736Z,39.30
2022-12-17T16:52:21.654Z,39.26
2022-12-17T16:57:24.421Z,39.01
2022-12-17T17:02:28.714Z,39.21
2022-12-17T17:07:31.577Z,38.89
2022-12-17T17:12:34.403Z,38.77
2022-12-17T17:17:53.846Z,39.09
2022-12-17T17:22:59.079Z,40.52
2022-12-17T17:28:01.904Z,40.84
2022-12-17T17:33:06.083Z,40.45
2022-12-17T17:38:08.832Z,40.84
2022-12-17T17:43:12.921Z,40.35
2022-12-17T17:48:17.057Z,40.77
2022-12-17T17:53:19.884Z,41.45
2022-12-17T17:58:22.700Z,41.27
2022-12-17T18:03:27.026Z,40.84
2022-12-17T18:08:31.454Z,40.83
2022-12-17T18:13:51.721Z,40.61
2022-12-17T18:18:57.576Z,40.72
2022-12-17T18:24:02.090Z,40.69
2022-12-17T18:29:08.952Z,40.73
2022-12-17T18:34:13.820Z,40.82
2022-12-17T18:39:17.305Z,40.73
2022-12-17T18:44:20.276Z,40.86
2022-12-17T18:49:24.486Z,40.86
2022-12-17T18:54:28.284Z,40.66
2022-12-17T18:59:31.496Z,41.07
2022-12-17T19:04:35.689Z,41.11
2022-12-17T19:09:40.103Z,41.08
2022-12-17T19:14:43.366Z,41.06
2022-12-17T19:19:48.122Z,41.19
2022-12-17T19:24:50.971Z,41.20
2022-12-17T19:29:54.887Z,41.33
2022-12-17T19:34:59.098Z,41.37
2022-12-17T19:40:01.896Z,41.52
2022-12-17T19:45:05.167Z,41.54
2022-12-17T19:50:10.135Z,41.67
2022-12-17T19:55:13.030Z,41.77
2022-12-17T20:00:16.408Z,41.78
2022-12-17T20:05:20.749Z,42.04
2022-12-17T20:10:23.532Z,42.21
2022-12-17T20:15:26.329Z,42.21
2022-12-17T20:20:30.552Z,42.10
2022-12-17T20:25:33.356Z,42.22
2022-12-17T20:30:36.138Z,42.40
2022-12-17T20:35:41.697Z,42.41
2022-12-17T20:40:44.493Z,42.58
2022-12-17T20:45:50.355Z,42.39
2022-12-17T20:50:54.821Z,42.77
2022-12-17T20:56:01.618Z,42.69
2022-12-17T21:01:06.010Z,42.84
2022-12-17T21:06:12.005Z,42.96
2022-12-17T21:11:14.811Z,42.89
2022-12-17T21:16:19.644Z,42.98
2022-12-17T21:21:25.016Z,42.72
2022-12-17T21:26:29.201Z,42.63
2022-12-17T21:31:33.070Z,42.68
2022-12-17T21:36:37.278Z,42.45
2022-12-17T21:41:44.632Z,41.99
2022-12-17T21:46:50.060Z,42.54
2022-12-17T21:51:55.078Z,42.70
2022-12-17T21:56:57.841Z,42.80
2022-12-17T22:02:00.758Z,42.70
2022-12-17T22:07:12.538Z,42.92
2022-12-17T22:12:37.734Z,42.88
2022-12-17T22:17:42.538Z,43.04
2022-12-17T22:22:46.760Z,43.05
2022-12-17T22:27:50.104Z,43.11
2022-12-17T22:33:02.699Z,42.92
2022-12-17T22:40:51.362Z,43.09
2022-12-17T22:44:44.080Z,43.04
2022-12-17T22:49:05.039Z,43.11
2022-12-17T22:54:09.344Z,43.14
2022-12-17T22:59:15.592Z,43.07
2022-12-17T23:04:18.473Z,43.03
2022-12-17T23:09:24.010Z,43.23
2022-12-17T23:14:26.746Z,43.12
2022-12-17T23:19:29.612Z,43.27
2022-12-17T23:24:34.869Z,43.36
2022-12-17T23:29:37.661Z,43.19
2022-12-17T23:34:41.288Z,43.16
2022-12-17T23:39:45.437Z,43.16
2022-12-17T23:44:48.313Z,43.43
2022-12-17T23:49:51.129Z,43.34
2022-12-17T23:54:55.514Z,43.57
2022-12-17T23:59:58.430Z,43.08
